createdAt,value
2024-04-14T00:00:12.654Z,3.77
2024-04-14T00:02:39.659Z,3.66
2024-04-14T00:05:06.741Z,3.79
2024-04-14T00:07:33.622Z,4.11
2024-04-14T00:10:00.439Z,3.57
2024-04-14T00:12:27.261Z,4.02
2024-04-14T00:14:54.087Z,4.09
2024-04-14T00:17:20.837Z,4.55
2024-04-14T00:19:52.939Z,4.10
2024-04-14T00:22:20.282Z,4.16
2024-04-14T00:24:48.325Z,3.99
2024-04-14T00:27:15.106Z,4.06
2024-04-14T00:29:41.915Z,3.80
2024-04-14T00:32:08.693Z,3.80
2024-04-14T00:34:35.516Z,3.87
2024-04-14T00:37:02.358Z,4.23
2024-04-14T00:39:29.143Z,4.22
2024-04-14T00:41:56.329Z,4.11
2024-04-14T00:44:23.097Z,3.96
2024-04-14T00:46:49.941Z,4.05
2024-04-14T00:49:16.807Z,4.19
2024-04-14T00:51:43.587Z,3.80
2024-04-14T00:54:12.642Z,3.88
2024-04-14T00:56:39.802Z,3.87
2024-04-14T00:59:06.970Z,3.84
2024-04-14T01:01:33.710Z,3.73
2024-04-14T01:04:00.648Z,3.96
2024-04-14T01:06:27.525Z,3.90
2024-04-14T01:08:54.774Z,4.24
2024-04-14T01:11:22.050Z,4.37
2024-04-14T01:13:48.991Z,4.24
2024-04-14T01:16:15.742Z,3.87
2024-04-14T01:18:42.490Z,4.06
2024-04-14T01:21:09.341Z,4.18
2024-04-14T01:23:36.345Z,4.31
2024-04-14T01:26:03.291Z,4.44
2024-04-14T01:28:30.050Z,4.30
2024-04-14T01:30:57.030Z,4.20
2024-04-14T01:33:23.798Z,4.06
2024-04-14T01:35:50.538Z,4.02
2024-04-14T01:38:24.586Z,4.17
2024-04-14T01:40:53.133Z,4.54
2024-04-14T01:43:19.861Z,4.40
2024-04-14T01:45:47.034Z,4.41
2024-04-14T01:48:14.089Z,4.50
2024-04-14T01:50:41.353Z,4.47
2024-04-14T01:53:08.328Z,4.31
2024-04-14T01:55:35.126Z,4.15
2024-04-14T01:58:02.019Z,3.99
2024-04-14T02:00:29.163Z,4.02
2024-04-14T02:02:57.326Z,4.28
2024-04-14T02:05:24.335Z,4.21
2024-04-14T02:07:51.086Z,4.05
2024-04-14T02:10:17.873Z,4.17
2024-04-14T02:12:44.718Z,4.21
2024-04-14T02:15:11.511Z,4.40
2024-04-14T02:17:38.441Z,4.47
2024-04-14T02:20:05.885Z,4.39
2024-04-14T02:22:32.687Z,4.61
2024-04-14T02:24:59.566Z,4.34
2024-04-14T02:27:26.459Z,4.46
2024-04-14T02:29:53.309Z,4.72
2024-04-14T02:32:20.296Z,4.43
2024-04-14T02:34:47.353Z,4.83
2024-04-14T02:37:14.091Z,4.46
2024-04-14T02:39:40.861Z,4.56
2024-04-14T02:42:07.649Z,4.41
2024-04-14T02:44:34.397Z,4.46
2024-04-14T02:47:01.134Z,4.67
2024-04-14T02:49:29.935Z,4.36
2024-04-14T02:51:57.714Z,4.39
2024-04-14T02:54:25.064Z,4.62
2024-04-14T02:56:51.964Z,4.51
2024-04-14T02:59:19.014Z,4.35
2024-04-14T03:01:47.167Z,4.27
2024-04-14T03:04:14.160Z,4.68
2024-04-14T03:06:41.109Z,4.43
2024-04-14T03:09:07.864Z,4.46
2024-04-14T03:11:34.670Z,4.47
2024-04-14T03:14:01.488Z,4.28
2024-04-14T03:16:28.271Z,4.49
2024-04-14T03:18:55.147Z,4.17
2024-04-14T03:21:24.336Z,4.31
2024-04-14T03:23:51.651Z,4.31
2024-04-14T03:26:18.523Z,4.37
2024-04-14T03:28:45.287Z,4.38
2024-04-14T03:31:12.415Z,4.48
2024-04-14T03:33:39.393Z,4.26
2024-04-14T03:36:08.323Z,4.35
2024-04-14T03:38:35.983Z,3.89
2024-04-14T03:41:03.165Z,4.32
2024-04-14T03:43:30.517Z,4.39
2024-04-14T03:45:57.560Z,4.11
2024-04-14T03:48:24.578Z,4.31
2024-04-14T03:50:51.548Z,4.40
2024-04-14T03:53:18.481Z,4.03
2024-04-14T03:55:45.546Z,4.17
2024-04-14T03:58:12.313Z,4.18
2024-04-14T04:00:39.340Z,4.02
2024-04-14T04:03:06.231Z,4.19
2024-04-14T04:05:32.986Z,4.12
2024-04-14T04:07:59.749Z,4.94
2024-04-14T04:10:26.503Z,5.60
2024-04-14T04:12:53.399Z,5.08
2024-04-14T04:15:20.227Z,4.29
2024-04-14T04:17:47.188Z,3.81
2024-04-14T04:20:14.180Z,4.15
2024-04-14T04:22:40.905Z,4.11
2024-04-14T04:25:07.691Z,4.31
2024-04-14T04:27:34.595Z,4.17
2024-04-14T04:30:01.448Z,4.18
2024-04-14T04:32:28.238Z,4.25
2024-04-14T04:34:55.017Z,4.21
2024-04-14T04:37:21.763Z,4.00
2024-04-14T04:39:48.627Z,3.96
2024-04-14T04:42:15.375Z,3.85
2024-04-14T04:44:42.223Z,4.06
2024-04-14T04:47:08.965Z,4.19
2024-04-14T04:49:35.736Z,4.12
2024-04-14T04:52:02.565Z,4.03
2024-04-14T04:54:29.410Z,4.06
2024-04-14T04:56:56.145Z,4.06
2024-04-14T04:59:23.504Z,4.22
2024-04-14T05:01:50.243Z,4.27
2024-04-14T05:04:17.006Z,3.97
2024-04-14T05:06:43.788Z,4.09
2024-04-14T05:09:10.558Z,4.04
2024-04-14T05:11:37.283Z,3.83
2024-04-14T05:14:04.025Z,3.70
2024-04-14T05:16:30.764Z,4.07
2024-04-14T05:18:57.540Z,4.33
2024-04-14T05:21:24.318Z,4.33
2024-04-14T05:23:51.124Z,4.64
2024-04-14T05:26:17.964Z,4.76
2024-04-14T05:28:44.700Z,4.38
2024-04-14T05:31:11.549Z,4.64
2024-04-14T05:33:38.333Z,4.11
2024-04-14T05:36:05.443Z,4.30
2024-04-14T05:38:36.510Z,4.56
2024-04-14T05:41:03.455Z,4.99
2024-04-14T05:43:30.191Z,4.85
2024-04-14T05:45:57.081Z,4.77
2024-04-14T05:48:23.889Z,4.73
2024-04-14T05:50:50.700Z,4.66
2024-04-14T05:53:17.437Z,4.99
2024-04-14T05:55:44.208Z,5.01
2024-04-14T05:58:10.948Z,5.04
2024-04-14T06:00:38.364Z,4.89
2024-04-14T06:03:05.868Z,4.72
2024-04-14T06:05:32.887Z,4.76
2024-04-14T06:07:59.832Z,4.82
2024-04-14T06:10:27.446Z,4.44
2024-04-14T06:12:54.195Z,4.22
2024-04-14T06:15:20.923Z,3.69
2024-04-14T06:17:47.712Z,3.82
2024-04-14T06:20:14.539Z,4.16
2024-04-14T06:22:41.323Z,4.42
2024-04-14T06:25:08.112Z,4.94
2024-04-14T06:27:34.921Z,6.62
2024-04-14T06:30:01.763Z,6.00
2024-04-14T06:32:28.664Z,6.26
2024-04-14T06:34:55.413Z,5.52
2024-04-14T06:37:22.233Z,4.96
2024-04-14T06:39:49.004Z,4.91
2024-04-14T06:42:17.137Z,4.29
2024-04-14T06:44:44.281Z,4.43
2024-04-14T06:47:12.092Z,4.27
2024-04-14T06:49:38.954Z,4.40
2024-04-14T06:52:06.260Z,3.95
2024-04-14T06:54:33.085Z,3.92
2024-04-14T06:56:59.859Z,3.77
2024-04-14T06:59:26.570Z,3.79
2024-04-14T07:01:53.483Z,3.90
2024-04-14T07:04:20.357Z,3.47
2024-04-14T07:06:47.305Z,3.93
2024-04-14T07:09:14.178Z,3.98
2024-04-14T07:11:40.927Z,3.44
2024-04-14T07:14:07.748Z,3.16
2024-04-14T07:16:34.521Z,3.10
2024-04-14T07:19:01.340Z,2.86
2024-04-14T07:21:28.149Z,2.82
2024-04-14T07:23:54.888Z,2.97
2024-04-14T07:26:21.695Z,2.80
2024-04-14T07:28:48.394Z,2.77
2024-04-14T07:31:15.126Z,2.61
2024-04-14T07:33:41.885Z,2.84
2024-04-14T07:36:08.685Z,2.71
2024-04-14T07:38:35.416Z,2.86
2024-04-14T07:41:02.177Z,2.78
2024-04-14T07:43:28.922Z,2.62
2024-04-14T07:45:57.227Z,2.51
2024-04-14T07:48:24.141Z,2.50
2024-04-14T07:50:50.968Z,2.50
2024-04-14T07:53:17.704Z,2.53
2024-04-14T07:55:44.509Z,2.47
2024-04-14T07:58:11.289Z,2.52
2024-04-14T08:00:38.114Z,2.50
2024-04-14T08:03:05.176Z,2.50
2024-04-14T08:05:32.022Z,2.26
2024-04-14T08:07:59.009Z,2.17
2024-04-14T08:10:25.788Z,2.09
2024-04-14T08:12:52.534Z,2.12
2024-04-14T08:15:19.261Z,2.22
2024-04-14T08:17:46.106Z,2.05
2024-04-14T08:20:12.865Z,2.07
2024-04-14T08:22:39.687Z,2.13
2024-04-14T08:25:06.780Z,2.11
2024-04-14T08:27:33.804Z,2.06
2024-04-14T08:30:00.652Z,2.16
2024-04-14T08:32:27.462Z,2.08
2024-04-14T08:34:54.290Z,2.05
2024-04-14T08:37:21.731Z,2.05
2024-04-14T08:39:48.577Z,2.20
2024-04-14T08:42:15.637Z,2.20
2024-04-14T08:44:44.160Z,2.33
2024-04-14T08:47:11.870Z,2.03
2024-04-14T08:49:41.444Z,2.20
2024-04-14T08:52:12.025Z,2.36
2024-04-14T08:54:39.643Z,2.31
2024-04-14T08:57:07.549Z,2.29
2024-04-14T08:59:34.808Z,2.17
2024-04-14T09:02:04.820Z,2.52
2024-04-14T09:04:31.668Z,2.42
2024-04-14T09:06:58.529Z,2.10
2024-04-14T09:09:25.356Z,2.18
2024-04-14T09:11:57.757Z,2.20
2024-04-14T09:14:24.592Z,2.19
2024-04-14T09:16:52.431Z,2.10
2024-04-14T09:19:19.758Z,2.12
2024-04-14T09:21:46.960Z,2.02
2024-04-14T09:24:13.808Z,2.15
2024-04-14T09:26:40.597Z,2.39
2024-04-14T09:29:08.929Z,2.09
2024-04-14T09:31:36.802Z,1.90
2024-04-14T09:34:06.977Z,1.98
2024-04-14T09:36:34.227Z,1.95
2024-04-14T09:39:04.432Z,2.13
2024-04-14T09:41:32.451Z,1.94
2024-04-14T09:44:00.836Z,1.79
2024-04-14T09:46:29.005Z,1.86
2024-04-14T09:48:57.777Z,2.00
2024-04-14T09:51:27.834Z,1.94
2024-04-14T09:53:55.563Z,2.05
2024-04-14T09:56:23.131Z,1.82
2024-04-14T09:58:50.180Z,1.85
2024-04-14T10:01:25.206Z,2.02
2024-04-14T10:03:57.581Z,1.94
2024-04-14T10:06:28.323Z,1.87
2024-04-14T10:08:55.398Z,1.90
2024-04-14T10:11:24.577Z,2.02
2024-04-14T10:13:59.255Z,2.19
2024-04-14T10:16:27.419Z,2.06
2024-04-14T10:18:54.373Z,1.97
2024-04-14T10:21:23.707Z,1.96
2024-04-14T10:23:58.904Z,1.88
2024-04-14T10:26:26.099Z,1.95
2024-04-14T10:28:54.757Z,1.81
2024-04-14T10:31:38.146Z,1.83
2024-04-14T10:34:08.042Z,1.79
2024-04-14T10:36:37.229Z,1.89
2024-04-14T10:39:06.335Z,1.57
2024-04-14T10:41:36.192Z,1.55
2024-04-14T10:44:03.028Z,1.70
2024-04-14T10:46:29.835Z,1.83
2024-04-14T10:48:57.038Z,1.75
2024-04-14T10:51:24.114Z,1.69
2024-04-14T10:53:54.770Z,1.70
2024-04-14T10:56:22.204Z,1.71
2024-04-14T10:58:49.022Z,1.60
2024-04-14T11:01:16.594Z,1.73
2024-04-14T11:03:43.960Z,1.54
2024-04-14T11:06:11.382Z,1.61
2024-04-14T11:08:40.071Z,1.68
2024-04-14T11:11:09.088Z,1.50
2024-04-14T11:13:36.834Z,1.50
2024-04-14T11:16:06.708Z,1.47
2024-04-14T11:18:36.259Z,1.61
2024-04-14T11:21:03.034Z,1.51
2024-04-14T11:23:29.827Z,1.62
2024-04-14T11:25:56.950Z,1.54
2024-04-14T11:28:23.987Z,1.69
2024-04-14T11:30:51.148Z,1.67
2024-04-14T11:33:22.385Z,1.75
2024-04-14T11:35:55.799Z,1.59
2024-04-14T11:38:22.577Z,1.52
2024-04-14T11:40:49.322Z,1.73
2024-04-14T11:43:16.142Z,1.67
2024-04-14T11:45:52.576Z,1.49
2024-04-14T11:48:21.601Z,1.56
2024-04-14T11:50:48.555Z,1.42
2024-04-14T11:53:15.364Z,1.60
2024-04-14T11:55:42.109Z,1.44
2024-04-14T11:58:09.969Z,1.45
2024-04-14T12:00:36.933Z,1.38
2024-04-14T12:03:04.464Z,1.58
2024-04-14T12:05:31.372Z,1.43
2024-04-14T12:07:58.090Z,1.47
2024-04-14T12:10:24.867Z,1.38
2024-04-14T12:12:51.915Z,1.51
2024-04-14T12:15:18.751Z,1.32
2024-04-14T12:17:45.525Z,1.38
2024-04-14T12:20:12.335Z,1.27
2024-04-14T12:22:39.179Z,1.25
2024-04-14T12:25:07.482Z,1.51
2024-04-14T12:27:34.323Z,1.45
2024-04-14T12:30:01.883Z,1.56
2024-04-14T12:32:28.832Z,1.55
2024-04-14T12:34:55.713Z,1.54
2024-04-14T12:37:22.458Z,1.39
2024-04-14T12:39:49.316Z,1.65
2024-04-14T12:42:16.068Z,1.43
2024-04-14T12:44:42.778Z,1.56
2024-04-14T12:47:09.599Z,1.46
2024-04-14T12:49:36.331Z,1.51
2024-04-14T12:52:03.216Z,1.67
2024-04-14T12:54:30.191Z,1.79
2024-04-14T12:56:57.068Z,1.80
2024-04-14T12:59:23.836Z,1.72
2024-04-14T13:01:51.212Z,1.64
2024-04-14T13:04:18.146Z,1.70
2024-04-14T13:06:45.071Z,1.59
2024-04-14T13:09:11.817Z,1.67
2024-04-14T13:11:38.598Z,1.79
2024-04-14T13:14:05.704Z,1.96
2024-04-14T13:16:32.538Z,1.49
2024-04-14T13:19:00.384Z,1.67
2024-04-14T13:21:29.833Z,1.58
2024-04-14T13:23:56.586Z,1.57
2024-04-14T13:26:26.496Z,1.59
2024-04-14T13:28:53.233Z,1.62
2024-04-14T13:31:19.976Z,1.59
2024-04-14T13:33:47.487Z,1.39
2024-04-14T13:36:14.290Z,1.64
2024-04-14T13:38:40.998Z,1.53
2024-04-14T13:41:08.779Z,1.53
2024-04-14T13:43:35.559Z,1.59
2024-04-14T13:46:02.463Z,1.65
2024-04-14T13:48:29.268Z,1.70
2024-04-14T13:50:56.014Z,1.55
2024-04-14T13:53:22.756Z,1.69
2024-04-14T13:55:49.475Z,1.63
2024-04-14T13:58:21.198Z,1.46
2024-04-14T14:00:48.710Z,1.52
2024-04-14T14:03:16.003Z,1.42
2024-04-14T14:08:09.609Z,1.50
2024-04-14T14:10:36.400Z,1.49
2024-04-14T14:13:03.210Z,1.45
2024-04-14T14:15:30.010Z,1.55
2024-04-14T14:17:57.042Z,1.40
2024-04-14T14:20:23.796Z,1.56
2024-04-14T14:22:50.544Z,1.44
2024-04-14T14:25:17.407Z,1.62
2024-04-14T14:27:44.423Z,1.46
2024-04-14T14:30:11.243Z,1.50
2024-04-14T14:32:40.909Z,1.54
2024-04-14T14:35:26.294Z,1.35
2024-04-14T14:37:53.105Z,1.53
2024-04-14T14:40:19.887Z,1.58
2024-04-14T14:42:48.073Z,1.43
2024-04-14T14:45:14.826Z,1.45
2024-04-14T14:47:41.617Z,1.55
2024-04-14T14:50:08.375Z,1.43
2024-04-14T14:52:35.132Z,1.53
2024-04-14T14:55:02.009Z,1.43
2024-04-14T14:57:28.841Z,1.45
2024-04-14T14:59:55.720Z,1.57
2024-04-14T15:02:22.487Z,1.34
2024-04-14T15:04:49.383Z,1.49
2024-04-14T15:07:16.174Z,1.52
2024-04-14T15:09:43.162Z,1.54
2024-04-14T15:12:12.508Z,1.41
2024-04-14T15:14:39.499Z,1.53
2024-04-14T15:17:06.627Z,1.56
2024-04-14T15:19:35.014Z,1.55
2024-04-14T15:22:02.219Z,1.54
2024-04-14T15:24:29.102Z,1.68
2024-04-14T15:26:55.879Z,1.40
2024-04-14T15:29:22.624Z,1.42
2024-04-14T15:31:49.544Z,1.51
2024-04-14T15:34:16.474Z,1.64
2024-04-14T15:36:43.302Z,1.59
2024-04-14T15:39:10.241Z,1.66
2024-04-14T15:41:36.999Z,4.72
2024-04-14T15:44:10.842Z,3.14
2024-04-14T15:46:44.436Z,1.67
2024-04-14T15:49:11.305Z,1.71
2024-04-14T15:51:38.117Z,1.51
2024-04-14T15:54:04.894Z,1.70
2024-04-14T15:56:31.639Z,1.47
2024-04-14T15:58:58.375Z,1.42
2024-04-14T16:01:25.553Z,1.45
2024-04-14T16:03:52.724Z,1.46
2024-04-14T16:06:22.146Z,1.59
2024-04-14T16:08:54.105Z,1.67
2024-04-14T16:11:20.904Z,2.32
2024-04-14T16:13:47.810Z,2.42
2024-04-14T16:16:15.608Z,3.49
2024-04-14T16:18:44.151Z,1.79
2024-04-14T16:21:11.073Z,1.46
2024-04-14T16:23:46.514Z,1.35
2024-04-14T16:26:14.005Z,1.36
2024-04-14T16:28:41.925Z,1.53
2024-04-14T16:31:10.434Z,1.52
2024-04-14T16:33:37.441Z,1.38
2024-04-14T16:36:04.717Z,1.40
2024-04-14T16:38:31.614Z,1.40
2024-04-14T16:40:58.347Z,1.50
2024-04-14T16:43:25.118Z,1.58
2024-04-14T16:45:51.944Z,1.38
2024-04-14T16:48:19.185Z,1.43
2024-04-14T16:50:46.112Z,1.49
2024-04-14T16:53:12.915Z,1.43
2024-04-14T16:55:39.668Z,1.48
2024-04-14T16:58:06.564Z,1.52
2024-04-14T17:00:33.980Z,1.56
2024-04-14T17:03:01.651Z,1.52
2024-04-14T17:05:28.531Z,1.68
2024-04-14T17:07:55.265Z,1.64
2024-04-14T17:10:22.151Z,1.71
2024-04-14T17:12:49.059Z,1.67
2024-04-14T17:15:16.400Z,1.53
2024-04-14T17:17:44.455Z,1.51
2024-04-14T17:20:13.702Z,1.72
2024-04-14T17:22:40.440Z,1.64
2024-04-14T17:25:07.560Z,1.59
2024-04-14T17:27:34.449Z,1.54
2024-04-14T17:30:03.296Z,1.59
2024-04-14T17:32:30.303Z,1.69
2024-04-14T17:34:57.281Z,1.67
2024-04-14T17:40:15.880Z,1.59
2024-04-14T17:42:43.041Z,1.63
2024-04-14T17:45:10.237Z,1.53
2024-04-14T17:47:37.447Z,1.56
2024-04-14T17:50:04.835Z,1.61
2024-04-14T17:52:31.988Z,1.54
2024-04-14T17:54:59.117Z,1.57
2024-04-14T17:57:26.405Z,1.53
2024-04-14T17:59:53.674Z,1.57
2024-04-14T18:02:21.613Z,1.57
2024-04-14T18:04:48.579Z,1.56
2024-04-14T18:07:15.712Z,1.62
2024-04-14T18:09:43.641Z,1.78
2024-04-14T18:12:10.561Z,1.77
2024-04-14T18:14:37.453Z,1.75
2024-04-14T18:17:04.560Z,1.69
2024-04-14T18:19:31.859Z,1.59
2024-04-14T18:21:58.781Z,1.69
2024-04-14T18:24:39.855Z,1.65
2024-04-14T18:27:14.688Z,1.73
2024-04-14T18:29:42.284Z,1.59
2024-04-14T18:32:09.378Z,1.57
2024-04-14T18:34:36.220Z,1.46
2024-04-14T18:37:04.029Z,1.51
2024-04-14T18:39:31.468Z,1.56
2024-04-14T19:02:45.870Z,1.68
2024-04-14T19:05:17.308Z,1.98
2024-04-14T19:07:49.701Z,1.76
2024-04-14T19:13:00.036Z,1.86
2024-04-14T19:15:31.297Z,1.66
2024-04-14T19:18:03.078Z,1.69
2024-04-14T19:23:16.834Z,2.94
2024-04-14T19:25:43.711Z,2.35
2024-04-14T19:28:12.833Z,1.74
2024-04-14T19:30:41.197Z,1.69
2024-04-14T19:33:08.221Z,1.63
2024-04-14T19:35:43.363Z,1.69
2024-04-14T19:38:14.127Z,1.81
2024-04-14T19:40:41.104Z,1.92
2024-04-14T19:43:08.114Z,1.78
2024-04-14T19:45:35.294Z,1.68
2024-04-14T19:48:02.499Z,1.84
2024-04-14T19:50:29.544Z,1.81
2024-04-14T19:52:57.960Z,1.83
2024-04-14T19:55:28.066Z,1.97
2024-04-14T19:57:55.028Z,1.95
2024-04-14T20:00:22.211Z,1.88
2024-04-14T20:02:49.205Z,2.08
2024-04-14T20:05:16.210Z,2.24
2024-04-14T20:07:43.070Z,1.84
2024-04-14T20:10:11.505Z,2.16
2024-04-14T20:12:38.487Z,2.03
2024-04-14T20:15:05.751Z,1.95
2024-04-14T20:17:32.724Z,2.09
2024-04-14T20:19:59.852Z,2.20
2024-04-14T20:22:26.826Z,2.57
2024-04-14T20:24:53.734Z,2.90
2024-04-14T20:27:20.716Z,2.27
2024-04-14T20:29:47.708Z,2.00
2024-04-14T20:32:14.575Z,2.16
2024-04-14T20:34:42.515Z,1.99
2024-04-14T20:37:09.399Z,1.99
2024-04-14T20:39:36.247Z,2.08
2024-04-14T20:42:03.071Z,2.35
2024-04-14T20:44:29.933Z,2.47
2024-04-14T20:46:56.684Z,2.35
2024-04-14T20:49:23.465Z,2.15
2024-04-14T20:51:50.289Z,2.23
2024-04-14T20:54:17.097Z,2.70
2024-04-14T20:56:43.868Z,3.17
2024-04-14T20:59:10.690Z,3.42
2024-04-14T21:01:37.523Z,6.13
2024-04-14T21:04:04.569Z,11.16
2024-04-14T21:06:31.368Z,5.36
2024-04-14T21:08:58.382Z,4.63
2024-04-14T21:11:25.242Z,4.18
2024-04-14T21:13:52.004Z,4.13
2024-04-14T21:16:18.906Z,2.58
2024-04-14T21:18:45.873Z,2.22
2024-04-14T21:21:12.880Z,2.28
2024-04-14T21:23:42.938Z,2.52
2024-04-14T21:26:09.921Z,2.59
2024-04-14T21:28:37.858Z,2.51
2024-04-14T21:31:05.525Z,2.56
2024-04-14T21:33:32.859Z,2.64
2024-04-14T21:35:59.718Z,3.62
2024-04-14T21:38:26.532Z,2.88
2024-04-14T21:40:56.614Z,2.91
2024-04-14T21:43:23.454Z,2.84
2024-04-14T21:45:57.611Z,2.49
2024-04-14T21:48:27.055Z,2.40
2024-04-14T21:51:05.051Z,2.25
2024-04-14T21:53:33.399Z,2.58
2024-04-14T21:56:01.520Z,2.43
2024-04-14T21:58:33.232Z,2.68
2024-04-14T22:01:02.160Z,2.60
2024-04-14T22:03:29.061Z,2.55
2024-04-14T22:05:57.933Z,2.57
2024-04-14T22:08:30.676Z,2.42
2024-04-14T22:10:59.966Z,2.54
2024-04-14T22:13:29.194Z,2.58
2024-04-14T22:15:56.200Z,2.66
2024-04-14T22:18:23.601Z,2.65
2024-04-14T22:20:50.449Z,2.74
2024-04-14T22:23:17.242Z,2.64
2024-04-14T22:25:43.992Z,2.59
2024-04-14T22:28:11.093Z,2.61
2024-04-14T22:30:38.782Z,2.59
2024-04-14T22:33:08.303Z,2.67
2024-04-14T22:35:35.068Z,2.84
2024-04-14T22:38:02.709Z,2.97
2024-04-14T22:40:30.124Z,2.88
2024-04-14T22:42:57.554Z,3.00
2024-04-14T22:45:24.390Z,2.78
2024-04-14T22:47:51.561Z,2.92
2024-04-14T22:50:18.804Z,3.01
2024-04-14T22:52:45.622Z,3.04
2024-04-14T22:55:12.403Z,3.05
2024-04-14T22:57:39.297Z,3.00
2024-04-14T23:00:11.297Z,3.00
2024-04-14T23:02:38.443Z,2.95
2024-04-14T23:05:05.493Z,2.73
2024-04-14T23:07:32.292Z,2.91
2024-04-14T23:10:00.745Z,3.00
2024-04-14T23:12:27.843Z,3.10
2024-04-14T23:14:54.948Z,3.44
2024-04-14T23:17:21.849Z,3.46
2024-04-14T23:19:49.695Z,3.51
2024-04-14T23:22:16.740Z,3.68
2024-04-14T23:24:43.740Z,3.61
2024-04-14T23:27:10.611Z,3.31
2024-04-14T23:29:37.927Z,3.13
2024-04-14T23:32:06.390Z,3.47
2024-04-14T23:34:33.395Z,3.58
2024-04-14T23:37:01.422Z,3.57
2024-04-14T23:39:28.171Z,3.60
2024-04-14T23:41:54.996Z,3.64
2024-04-14T23:44:21.725Z,3.66
2024-04-14T23:46:48.505Z,3.78
2024-04-14T23:49:15.596Z,3.68
2024-04-14T23:51:42.382Z,3.53
2024-04-14T23:54:09.315Z,3.63
2024-04-14T23:56:36.053Z,3.49
2024-04-14T23:59:02.842Z,3.35
